Time;durP1;ratioP1;P1;durP2;ratioP2;P2;SDS_P1;SDS_P2;PMS_P1;PMS_P2;Temp;Humidity;BMP_temperature;BMP_pressure;BME280_temperature;BME280_humidity;BME280_pressure;Samples;Min_cycle;Max_cycle;Signal;HPM_P1;HPM_P2
2021/01/21 00:01:06;;;;;;;1.07;0.83;;;3.20;99.50;;;;;;4975304;28;20200;-69
2021/01/21 00:03:33;;;;;;;1.10;1.10;;;3.00;99.70;;;;;;4975305;28;20171;-69
2021/01/21 00:06:00;;;;;;;3.08;2.30;;;2.90;99.90;;;;;;4974823;28;20198;-70
2021/01/21 00:08:26;;;;;;;1.30;1.20;;;2.90;99.90;;;;;;4974960;28;20193;-69
2021/01/21 00:10:52;;;;;;;2.00;1.05;;;3.00;99.90;;;;;;4974825;28;20188;-71
2021/01/21 00:13:17;;;;;;;5.00;1.53;;;3.10;99.90;;;;;;4975076;28;20180;-69
2021/01/21 00:15:43;;;;;;;1.20;0.83;;;3.30;99.90;;;;;;4974777;28;20170;-70
2021/01/21 00:18:08;;;;;;;1.50;0.60;;;3.40;99.90;;;;;;4975128;28;20216;-69
2021/01/21 00:20:34;;;;;;;1.77;1.77;;;3.50;99.90;;;;;;4974838;28;20197;-69
2021/01/21 00:23:00;;;;;;;1.47;1.10;;;3.60;99.70;;;;;;4974713;28;20215;-71
2021/01/21 00:25:25;;;;;;;0.90;0.87;;;3.70;99.20;;;;;;4974869;28;20584;-71
2021/01/21 00:27:51;;;;;;;1.30;1.20;;;3.60;98.90;;;;;;4973636;28;20213;-70
2021/01/21 00:30:17;;;;;;;1.60;1.13;;;3.60;99.40;;;;;;4973527;28;20651;-70
2021/01/21 00:32:43;;;;;;;0.95;0.90;;;3.50;99.80;;;;;;4974607;28;20573;-70
2021/01/21 00:35:11;;;;;;;1.80;1.60;;;3.60;99.90;;;;;;4974528;28;20183;-70
2021/01/21 00:37:37;;;;;;;1.65;1.23;;;3.70;99.90;;;;;;4974566;28;20183;-69
2021/01/21 00:40:03;;;;;;;0.87;0.87;;;3.80;99.90;;;;;;4974683;28;20176;-71
2021/01/21 00:42:29;;;;;;;1.23;1.13;;;3.70;99.70;;;;;;4974552;28;20705;-71
2021/01/21 00:44:55;;;;;;;1.53;0.80;;;3.80;99.80;;;;;;4974611;28;20200;-70
2021/01/21 00:47:20;;;;;;;0.80;0.80;;;3.90;99.70;;;;;;4975392;28;20205;-71
2021/01/21 00:49:46;;;;;;;1.23;1.13;;;4.00;99.50;;;;;;4978496;28;20180;-70
2021/01/21 00:52:11;;;;;;;0.97;0.97;;;4.00;99.50;;;;;;4978541;28;20199;-69
2021/01/21 00:54:37;;;;;;;1.30;1.20;;;4.10;99.20;;;;;;4978581;28;20173;-70
2021/01/21 00:57:03;;;;;;;2.10;1.07;;;4.10;98.90;;;;;;4978446;28;20184;-71
2021/01/21 00:59:28;;;;;;;1.17;1.10;;;4.00;98.80;;;;;;4978578;28;20270;-69
2021/01/21 01:01:54;;;;;;;0.97;0.97;;;4.00;98.90;;;;;;4978425;28;20202;-70
2021/01/21 01:04:19;;;;;;;1.30;1.20;;;3.90;99.20;;;;;;4978349;28;20259;-70
2021/01/21 01:06:45;;;;;;;1.20;1.10;;;4.00;99.50;;;;;;4978063;28;20655;-69
2021/01/21 01:09:11;;;;;;;1.70;1.60;;;4.10;99.40;;;;;;4978412;28;20187;-70
2021/01/21 01:11:36;;;;;;;2.30;0.90;;;4.10;99.30;;;;;;4978105;28;20214;-70
2021/01/21 01:14:02;;;;;;;1.47;1.37;;;4.10;99.30;;;;;;4978744;28;20619;-69
2021/01/21 01:16:28;;;;;;;1.80;1.43;;;4.10;99.20;;;;;;4978025;28;20180;-70
2021/01/21 01:18:53;;;;;;;2.50;1.10;;;4.10;98.90;;;;;;4978361;28;20197;-71
2021/01/21 01:21:19;;;;;;;1.40;1.30;;;3.90;99.60;;;;;;4978038;28;20254;-71
2021/01/21 01:23:44;;;;;;;1.30;1.20;;;4.00;99.90;;;;;;4978026;28;20548;-71
2021/01/21 01:26:10;;;;;;;0.93;0.93;;;4.10;99.90;;;;;;4977765;28;20663;-69
2021/01/21 01:28:38;;;;;;;3.23;2.07;;;4.20;99.70;;;;;;4978197;28;20688;-69
2021/01/21 01:31:04;;;;;;;1.30;1.20;;;4.20;98.80;;;;;;4977989;28;20436;-70
2021/01/21 01:33:29;;;;;;;1.50;1.40;;;4.10;98.70;;;;;;4977820;28;20184;-71
2021/01/21 01:35:55;;;;;;;1.43;1.03;;;3.90;99.30;;;;;;4977924;28;20169;-71
2021/01/21 01:38:20;;;;;;;1.23;1.10;;;3.80;99.80;;;;;;4977756;28;20173;-70
2021/01/21 01:40:46;;;;;;;1.63;1.40;;;3.70;99.90;;;;;;4977625;28;20247;-70
2021/01/21 01:43:12;;;;;;;3.27;1.20;;;3.80;99.90;;;;;;4977705;28;20175;-69
2021/01/21 01:45:37;;;;;;;1.37;0.93;;;3.90;99.90;;;;;;4977461;28;20286;-71
2021/01/21 01:48:03;;;;;;;0.90;0.90;;;4.00;99.90;;;;;;4977741;28;20177;-70
2021/01/21 01:50:29;;;;;;;1.65;1.30;;;4.10;99.90;;;;;;4977373;28;20627;-70
2021/01/21 01:52:55;;;;;;;1.50;1.40;;;4.20;99.60;;;;;;4977389;28;20193;-71
2021/01/21 01:55:21;;;;;;;2.20;1.47;;;4.10;99.30;;;;;;4977698;28;20185;-70
2021/01/21 01:57:51;;;;;;;2.07;1.97;;;4.10;99.50;;;;;;4977314;28;20494;-70
2021/01/21 02:00:17;;;;;;;1.48;1.38;;;4.10;99.40;;;;;;4977340;28;20826;-71
2021/01/21 02:02:47;;;;;;;3.83;1.60;;;4.10;99.40;;;;;;4977274;28;20205;-70
2021/01/21 02:05:13;;;;;;;1.13;1.13;;;4.20;99.40;;;;;;4977072;28;20180;-69
2021/01/21 02:07:38;;;;;;;1.03;0.97;;;4.20;99.40;;;;;;4977300;28;20183;-70
2021/01/21 02:10:05;;;;;;;1.53;1.43;;;4.20;99.50;;;;;;4977299;28;20271;-69
2021/01/21 02:12:40;;;;;;;1.40;0.95;;;4.30;99.60;;;;;;4977060;28;20654;-69
2021/01/21 02:15:16;;;;;;;1.10;1.00;;;4.30;99.70;;;;;;4976980;28;20631;-70
2021/01/21 02:17:50;;;;;;;0.80;0.80;;;4.30;99.80;;;;;;4977326;28;20623;-70
2021/01/21 02:20:46;;;;;;;1.33;1.23;;;4.30;99.90;;;;;;4977009;28;20172;-71
2021/01/21 02:23:56;;;;;;;1.80;1.05;;;4.50;99.80;;;;;;4977128;28;20262;-70
2021/01/21 02:26:40;;;;;;;1.00;1.00;;;4.60;99.40;;;;;;4976764;28;20205;-70
2021/01/21 02:29:30;;;;;;;1.58;0.93;;;4.70;99.20;;;;;;4977042;28;20223;-71
2021/01/21 02:32:08;;;;;;;0.93;0.93;;;4.60;99.10;;;;;;4976715;28;20236;-69
2021/01/21 02:34:40;;;;;;;1.58;0.90;;;4.70;98.90;;;;;;4976970;28;20661;-69
2021/01/21 02:37:13;;;;;;;1.70;1.60;;;4.70;98.70;;;;;;4976566;28;20222;-69
2021/01/21 02:39:44;;;;;;;1.17;1.08;;;4.60;98.70;;;;;;4976915;28;20185;-70
2021/01/21 02:42:09;;;;;;;1.30;1.20;;;4.60;98.90;;;;;;4976615;28;20247;-69
2021/01/21 02:44:35;;;;;;;1.40;1.00;;;4.60;98.90;;;;;;4976762;28;20260;-70
2021/01/21 02:47:01;;;;;;;0.77;0.70;;;4.30;99.40;;;;;;4976288;28;20207;-71
2021/01/21 02:49:26;;;;;;;1.23;1.00;;;4.20;99.90;;;;;;4976572;28;20170;-70
2021/01/21 02:52:20;;;;;;;1.23;1.13;;;4.30;99.90;;;;;;4976254;28;20440;-71
2021/01/21 02:54:49;;;;;;;0.90;0.90;;;4.50;99.80;;;;;;4975008;28;20173;-70
2021/01/21 02:57:26;;;;;;;1.95;1.35;;;4.50;99.40;;;;;;4976306;28;20592;-70
2021/01/21 02:59:55;;;;;;;1.02;0.93;;;4.60;99.40;;;;;;4975084;28;20176;-70
2021/01/21 03:02:24;;;;;;;1.15;0.85;;;4.60;99.20;;;;;;4976164;28;20192;-69
2021/01/21 03:04:53;;;;;;;1.55;1.05;;;4.60;99.10;;;;;;4976160;28;20212;-68
2021/01/21 03:07:21;;;;;;;1.05;1.00;;;4.60;99.30;;;;;;4976111;28;20609;-70
2021/01/21 03:09:46;;;;;;;1.05;1.05;;;4.60;99.20;;;;;;4975571;28;20546;-69
2021/01/21 03:12:22;;;;;;;1.53;0.83;;;4.60;99.30;;;;;;4976101;28;20330;-70
2021/01/21 03:14:50;;;;;;;1.20;1.20;;;4.60;99.20;;;;;;4975839;28;20547;-70
2021/01/21 03:17:16;;;;;;;0.70;0.70;;;4.70;99.10;;;;;;4976195;28;20220;-71
2021/01/21 03:19:42;;;;;;;0.95;0.85;;;4.80;99.10;;;;;;4975845;28;20176;-70
2021/01/21 03:22:08;;;;;;;1.43;0.80;;;4.80;99.00;;;;;;4975723;28;20255;-69
2021/01/21 03:24:33;;;;;;;1.23;0.90;;;4.60;98.90;;;;;;4975835;28;20204;-70
2021/01/21 03:26:59;;;;;;;2.50;0.90;;;4.50;99.20;;;;;;4975661;28;20251;-70
2021/01/21 03:29:27;;;;;;;1.10;1.10;;;4.70;99.30;;;;;;4975833;28;20169;-71
2021/01/21 03:31:53;;;;;;;1.40;1.30;;;4.70;99.10;;;;;;4975749;28;20193;-71
2021/01/21 03:34:18;;;;;;;1.95;1.75;;;4.70;99.00;;;;;;4975782;28;20224;-69
2021/01/21 03:36:44;;;;;;;2.20;0.93;;;4.50;99.10;;;;;;4975285;28;20674;-69
2021/01/21 03:39:10;;;;;;;2.20;1.60;;;4.50;99.30;;;;;;4975589;28;20251;-69
2021/01/21 03:41:35;;;;;;;1.63;1.53;;;4.60;99.50;;;;;;4974197;28;20200;-71
2021/01/21 03:44:01;;;;;;;1.83;0.70;;;4.70;99.50;;;;;;4975839;28;20200;-68
2021/01/21 03:46:27;;;;;;;1.27;1.17;;;4.70;99.30;;;;;;4975373;28;20243;-71
2021/01/21 03:48:52;;;;;;;5.23;1.43;;;4.80;99.50;;;;;;4975487;28;20161;-70
2021/01/21 03:51:18;;;;;;;1.13;1.00;;;4.80;99.10;;;;;;4975301;28;20428;-70
2021/01/21 03:53:44;;;;;;;1.37;1.27;;;4.80;98.90;;;;;;4975360;28;20690;-70
2021/01/21 03:56:09;;;;;;;1.73;1.63;;;4.80;98.60;;;;;;4975218;28;20169;-71
2021/01/21 03:58:35;;;;;;;2.13;1.80;;;4.80;98.70;;;;;;4975310;28;20263;-70
2021/01/21 04:01:00;;;;;;;0.93;0.93;;;4.80;98.80;;;;;;4975220;28;20195;-68
2021/01/21 04:03:26;;;;;;;1.57;1.47;;;4.70;98.90;;;;;;4975197;28;20183;-70
2021/01/21 04:05:52;;;;;;;2.93;0.90;;;4.80;99.00;;;;;;4975022;28;20208;-70
2021/01/21 04:08:17;;;;;;;0.80;0.80;;;4.80;99.00;;;;;;4975142;28;20224;-68
2021/01/21 04:10:43;;;;;;;1.00;1.00;;;4.80;99.10;;;;;;4974849;28;20192;-70
2021/01/21 04:13:08;;;;;;;4.50;1.40;;;4.80;99.10;;;;;;4975003;28;20537;-70
2021/01/21 04:15:34;;;;;;;1.50;1.20;;;4.80;99.10;;;;;;4974877;28;20173;-70
2021/01/21 04:17:59;;;;;;;3.70;1.20;;;4.80;98.90;;;;;;4974881;28;20173;-70
2021/01/21 04:20:25;;;;;;;1.23;1.00;;;4.90;98.80;;;;;;4974919;28;20192;-71
2021/01/21 04:22:51;;;;;;;1.77;1.43;;;4.80;98.60;;;;;;4974768;28;20193;-71
2021/01/21 04:25:16;;;;;;;1.23;0.90;;;4.80;98.70;;;;;;4974467;28;20172;-70
2021/01/21 04:27:42;;;;;;;1.07;1.00;;;4.80;99.00;;;;;;4974738;28;20199;-69
2021/01/21 04:30:08;;;;;;;0.90;0.90;;;4.70;99.10;;;;;;4974714;28;20168;-71
2021/01/21 04:32:34;;;;;;;3.80;1.15;;;4.90;99.10;;;;;;4974957;28;20192;-71
2021/01/21 04:35:00;;;;;;;3.57;1.33;;;4.90;98.90;;;;;;4974527;28;20669;-70
2021/01/21 04:37:25;;;;;;;4.57;1.17;;;4.90;99.00;;;;;;4974694;28;20459;-70
2021/01/21 04:39:51;;;;;;;1.20;1.10;;;4.90;99.00;;;;;;4974993;28;20275;-70
2021/01/21 04:42:17;;;;;;;1.20;1.10;;;4.90;98.90;;;;;;4974582;28;20196;-70
2021/01/21 04:44:42;;;;;;;1.70;1.10;;;5.00;98.90;;;;;;4974593;28;20255;-71
2021/01/21 04:47:09;;;;;;;0.90;0.90;;;5.00;98.70;;;;;;4974708;28;20351;-69
2021/01/21 04:49:40;;;;;;;1.30;1.25;;;5.00;98.80;;;;;;4974621;28;20686;-69
2021/01/21 04:52:09;;;;;;;1.90;0.90;;;5.00;98.70;;;;;;4974737;28;20196;-71
2021/01/21 04:54:50;;;;;;;3.63;1.10;;;5.00;98.60;;;;;;4974615;28;20177;-71
2021/01/21 04:57:20;;;;;;;1.33;1.23;;;5.00;98.80;;;;;;4973456;28;20643;-69
2021/01/21 04:59:47;;;;;;;0.70;0.70;;;5.00;98.80;;;;;;4974417;28;20227;-70
2021/01/21 05:02:15;;;;;;;0.90;0.90;;;5.00;98.70;;;;;;4974409;28;20224;-69
2021/01/21 05:04:41;;;;;;;1.10;1.10;;;5.00;98.60;;;;;;4974572;28;20177;-71
2021/01/21 05:07:08;;;;;;;1.17;1.13;;;5.00;98.70;;;;;;4974574;28;20296;-71
2021/01/21 05:09:36;;;;;;;1.08;1.08;;;5.00;98.80;;;;;;4974289;28;20551;-71
2021/01/21 05:12:02;;;;;;;0.80;0.80;;;5.00;98.80;;;;;;4974377;28;20197;-69
2021/01/21 05:14:31;;;;;;;1.30;1.20;;;5.00;98.70;;;;;;4974333;28;20260;-69
2021/01/21 05:16:57;;;;;;;0.93;0.93;;;5.00;98.80;;;;;;4974221;28;20503;-71
2021/01/21 05:19:23;;;;;;;1.20;1.00;;;5.00;98.70;;;;;;4973115;28;20185;-71
2021/01/21 05:21:50;;;;;;;1.10;1.00;;;5.00;98.60;;;;;;4973012;28;20193;-70
2021/01/21 05:24:15;;;;;;;1.27;0.85;;;4.90;98.70;;;;;;4974254;28;20534;-71
2021/01/21 05:26:43;;;;;;;1.17;1.07;;;5.00;98.80;;;;;;4974143;28;20207;-69
2021/01/21 05:29:12;;;;;;;1.10;1.00;;;5.00;98.90;;;;;;4974433;28;20176;-69
2021/01/21 05:31:38;;;;;;;3.78;1.08;;;5.00;99.20;;;;;;4974160;28;20304;-68
2021/01/21 05:34:08;;;;;;;1.70;1.25;;;4.90;99.10;;;;;;4976227;28;20165;-71
2021/01/21 05:36:38;;;;;;;1.00;1.00;;;5.00;99.20;;;;;;4977657;28;20180;-70
2021/01/21 05:39:06;;;;;;;1.83;1.73;;;5.00;99.00;;;;;;4977753;28;20173;-71
2021/01/21 05:41:36;;;;;;;1.30;1.20;;;5.10;98.90;;;;;;4977831;28;20545;-69
2021/01/21 05:44:03;;;;;;;0.80;0.80;;;5.10;99.10;;;;;;4977571;28;20180;-69
2021/01/21 05:46:31;;;;;;;2.80;0.90;;;5.10;98.70;;;;;;4977377;28;20565;-71
2021/01/21 05:48:57;;;;;;;1.25;0.60;;;5.20;98.60;;;;;;4977657;28;20169;-69
2021/01/21 05:51:24;;;;;;;4.00;1.23;;;5.10;98.60;;;;;;4977538;28;20188;-71
2021/01/21 05:53:52;;;;;;;1.33;1.23;;;5.10;98.70;;;;;;4977493;28;20183;-71
2021/01/21 05:56:21;;;;;;;1.88;1.70;;;5.20;98.60;;;;;;4977312;28;20177;-70
2021/01/21 05:58:50;;;;;;;1.00;0.98;;;5.10;98.70;;;;;;4977279;28;20185;-70
2021/01/21 06:01:16;;;;;;;2.50;1.13;;;5.20;98.70;;;;;;4977273;28;20279;-70
2021/01/21 06:03:43;;;;;;;0.80;0.70;;;5.10;98.60;;;;;;4977340;28;20703;-71
2021/01/21 06:06:11;;;;;;;0.95;0.60;;;5.10;98.80;;;;;;4977081;28;20551;-70
2021/01/21 06:08:43;;;;;;;0.70;0.70;;;5.00;99.10;;;;;;4977265;28;20631;-70
2021/01/21 06:11:10;;;;;;;0.65;0.65;;;5.10;99.20;;;;;;4976884;28;20654;-70
2021/01/21 06:13:41;;;;;;;2.25;1.50;;;5.10;99.00;;;;;;4977301;28;20177;-69
2021/01/21 06:16:07;;;;;;;0.80;0.80;;;5.20;99.10;;;;;;4977084;28;20173;-69
2021/01/21 06:18:33;;;;;;;2.83;1.52;;;5.20;99.10;;;;;;4977254;28;20188;-70
2021/01/21 06:21:00;;;;;;;1.27;0.70;;;5.20;99.10;;;;;;4977023;28;20173;-71
2021/01/21 06:23:30;;;;;;;0.90;0.90;;;5.10;99.10;;;;;;4976999;28;20173;-68
2021/01/21 06:25:57;;;;;;;0.90;0.82;;;5.20;99.00;;;;;;4976683;28;20207;-70
2021/01/21 06:28:25;;;;;;;1.45;1.10;;;5.20;98.80;;;;;;4976997;28;20177;-71
2021/01/21 06:30:53;;;;;;;1.40;1.30;;;5.20;98.90;;;;;;4976898;28;20169;-71
2021/01/21 06:33:25;;;;;;;0.93;0.80;;;5.30;98.80;;;;;;4976817;28;20311;-69
2021/01/21 06:36:02;;;;;;;0.98;0.98;;;5.30;98.80;;;;;;4976781;28;20173;-70
2021/01/21 06:38:38;;;;;;;1.38;1.05;;;5.30;98.80;;;;;;4975443;28;20665;-71
2021/01/21 06:41:13;;;;;;;1.30;1.20;;;5.20;98.70;;;;;;4976961;28;20189;-69
2021/01/21 06:43:40;;;;;;;0.70;0.70;;;5.10;98.80;;;;;;4976609;28;20181;-71
2021/01/21 06:46:15;;;;;;;1.05;0.90;;;5.00;99.30;;;;;;4973978;28;20204;-70
2021/01/21 06:48:50;;;;;;;0.75;0.75;;;4.90;99.60;;;;;;4976850;28;20255;-69
2021/01/21 06:51:17;;;;;;;1.33;1.27;;;5.00;99.60;;;;;;4976341;28;20264;-70
2021/01/21 06:53:50;;;;;;;1.40;1.30;;;5.00;99.60;;;;;;4976440;28;20258;-70
2021/01/21 06:56:15;;;;;;;2.53;1.30;;;5.00;99.50;;;;;;4976354;28;20595;-70
2021/01/21 06:58:48;;;;;;;4.67;3.30;;;5.00;99.50;;;;;;4976180;28;20181;-69
2021/01/21 07:01:34;;;;;;;6.13;5.25;;;5.10;99.30;;;;;;4976356;28;20201;-69
2021/01/21 07:04:08;;;;;;;2.92;2.70;;;5.00;99.20;;;;;;4975065;28;20184;-69
2021/01/21 07:06:52;;;;;;;1.40;1.30;;;5.00;99.20;;;;;;4976021;28;20193;-70
2021/01/21 07:09:28;;;;;;;1.83;1.73;;;5.10;99.20;;;;;;4975960;28;20248;-69
2021/01/21 07:11:58;;;;;;;0.80;0.80;;;5.10;99.20;;;;;;4975922;28;20200;-69
2021/01/21 07:14:30;;;;;;;1.85;0.98;;;5.10;99.40;;;;;;4974725;28;20201;-70
2021/01/21 07:16:56;;;;;;;0.60;0.60;;;5.00;99.60;;;;;;4975833;28;20176;-71
2021/01/21 07:19:49;;;;;;;0.95;0.77;;;5.00;99.80;;;;;;4976096;28;20195;-71
2021/01/21 07:22:24;;;;;;;0.60;0.60;;;5.00;99.90;;;;;;4973964;28;20205;-70
2021/01/21 07:24:50;;;;;;;0.80;0.80;;;4.90;99.90;;;;;;4975817;28;20180;-70
2021/01/21 07:27:18;;;;;;;0.60;0.60;;;4.90;99.90;;;;;;4974477;28;20311;-71
2021/01/21 07:29:44;;;;;;;0.80;0.80;;;5.00;99.90;;;;;;4975816;28;20173;-69
2021/01/21 07:32:10;;;;;;;0.67;0.60;;;5.00;99.90;;;;;;4975625;28;20248;-70
2021/01/21 07:41:42;;;;;;;0.85;0.82;;;5.20;99.80;;;;;;4975976;28;20199;-69
2021/01/21 07:44:07;;;;;;;0.95;0.95;;;5.30;99.60;;;;;;4975552;28;20173;-69
2021/01/21 07:46:33;;;;;;;0.70;0.70;;;5.20;99.90;;;;;;4975131;28;20204;-70
2021/01/21 07:49:21;;;;;;;1.30;0.80;;;5.20;99.90;;;;;;4975425;28;20243;-71
2021/01/21 07:52:07;;;;;;;0.93;0.88;;;5.40;99.90;;;;;;4975125;28;20189;-71
2021/01/21 07:54:53;;;;;;;1.27;1.17;;;5.40;99.90;;;;;;4975132;28;20199;-69
2021/01/21 08:04:10;;;;;;;0.95;0.90;;;5.30;99.90;;;;;;4975652;28;20258;-70
2021/01/21 08:06:35;;;;;;;1.33;1.23;;;5.30;99.90;;;;;;4975153;28;20690;-70
2021/01/21 08:09:12;;;;;;;7.43;0.80;;;5.30;99.90;;;;;;4973799;28;20639;-70
2021/01/21 08:11:37;;;;;;;0.77;0.77;;;5.50;99.90;;;;;;4975417;28;20192;-71
2021/01/21 08:14:03;;;;;;;0.67;0.67;;;5.60;99.70;;;;;;4973842;28;20597;-69
2021/01/21 08:16:29;;;;;;;2.40;1.47;;;5.70;99.60;;;;;;4974803;28;20177;-69
2021/01/21 08:19:02;;;;;;;1.65;1.30;;;5.80;99.00;;;;;;4974923;28;20169;-69
2021/01/21 08:21:28;;;;;;;1.02;1.02;;;6.00;98.60;;;;;;4975031;28;20296;-70
2021/01/21 08:23:59;;;;;;;2.55;2.17;;;5.80;98.30;;;;;;4975041;28;20710;-71
2021/01/21 08:26:27;;;;;;;2.10;1.95;;;5.90;98.60;;;;;;4974686;28;20300;-69
2021/01/21 08:28:53;;;;;;;5.53;2.78;;;5.90;98.40;;;;;;4974880;28;20172;-70
2021/01/21 08:31:21;;;;;;;1.77;1.67;;;5.90;98.30;;;;;;4974867;28;20188;-70
2021/01/21 08:33:52;;;;;;;2.75;2.55;;;5.90;98.20;;;;;;4973496;28;20404;-71
2021/01/21 08:36:23;;;;;;;4.25;3.22;;;6.00;98.30;;;;;;4974598;28;20173;-71
2021/01/21 08:38:50;;;;;;;9.10;5.00;;;6.10;98.20;;;;;;4974916;28;20259;-71
2021/01/21 08:41:18;;;;;;;5.28;4.00;;;6.00;98.10;;;;;;4974795;28;20197;-70
2021/01/21 08:43:45;;;;;;;5.78;4.20;;;6.10;98.20;;;;;;4974740;28;20183;-71
2021/01/21 08:46:22;;;;;;;4.57;3.17;;;6.20;97.90;;;;;;4974549;28;20674;-69
2021/01/21 08:48:49;;;;;;;4.32;2.95;;;6.10;98.10;;;;;;4974858;28;20179;-70
2021/01/21 08:51:29;;;;;;;3.25;3.05;;;6.00;98.10;;;;;;4974494;28;20188;-70
2021/01/21 08:54:14;;;;;;;4.35;2.88;;;6.10;98.20;;;;;;4974910;28;20153;-71
2021/01/21 08:56:40;;;;;;;3.60;2.78;;;6.30;98.00;;;;;;4974581;28;20181;-70
2021/01/21 08:59:24;;;;;;;2.05;1.35;;;6.20;98.20;;;;;;4975049;28;20220;-70
2021/01/21 09:01:50;;;;;;;2.25;1.50;;;6.40;98.10;;;;;;4974448;28;20246;-70
2021/01/21 09:04:23;;;;;;;6.10;4.00;;;6.40;98.00;;;;;;4974606;28;20181;-71
2021/01/21 09:06:51;;;;;;;4.00;3.60;;;6.40;97.90;;;;;;4974185;28;20207;-69
2021/01/21 09:09:37;;;;;;;4.70;4.30;;;6.40;97.80;;;;;;4976856;28;20173;-71
2021/01/21 09:12:16;;;;;;;3.45;2.72;;;6.30;97.90;;;;;;4978186;28;20223;-71
2021/01/21 09:14:43;;;;;;;1.40;0.98;;;6.40;98.10;;;;;;4978317;28;20663;-70
2021/01/21 09:17:13;;;;;;;1.40;1.30;;;6.50;98.10;;;;;;4978228;28;20615;-70
2021/01/21 09:19:41;;;;;;;2.65;2.00;;;6.70;97.90;;;;;;4978059;28;20678;-70
2021/01/21 09:22:15;;;;;;;3.33;1.38;;;6.70;97.70;;;;;;4978045;28;20201;-69
2021/01/21 09:25:04;;;;;;;1.02;0.90;;;6.90;97.60;;;;;;4977996;28;20281;-70
2021/01/21 09:27:35;;;;;;;1.60;0.90;;;6.90;97.70;;;;;;4978070;28;20196;-70
2021/01/21 09:30:11;;;;;;;2.35;1.20;;;7.00;97.50;;;;;;4978332;28;20215;-70
2021/01/21 09:32:38;;;;;;;1.70;1.60;;;7.10;97.30;;;;;;4978340;28;20237;-69
2021/01/21 09:35:11;;;;;;;2.72;1.60;;;7.20;97.20;;;;;;4976512;28;20173;-69
2021/01/21 09:37:39;;;;;;;1.13;1.13;;;7.20;97.00;;;;;;4976648;28;20176;-69
2021/01/21 09:40:07;;;;;;;1.35;1.25;;;7.20;96.60;;;;;;4977762;28;20181;-69
2021/01/21 09:42:33;;;;;;;1.20;1.10;;;7.10;96.90;;;;;;4977747;28;20204;-70
2021/01/21 09:44:59;;;;;;;1.10;0.68;;;7.00;97.20;;;;;;4977708;28;20185;-69
2021/01/21 09:47:26;;;;;;;0.77;0.77;;;7.00;97.70;;;;;;4977624;28;20284;-70
2021/01/21 09:49:51;;;;;;;2.88;1.60;;;7.20;97.50;;;;;;4977594;28;20180;-70
2021/01/21 09:52:17;;;;;;;3.00;2.80;;;7.30;97.20;;;;;;4977522;28;20197;-70
2021/01/21 09:54:43;;;;;;;3.57;1.70;;;7.40;96.70;;;;;;4977745;28;20217;-70
2021/01/21 09:57:09;;;;;;;1.65;1.55;;;7.40;96.30;;;;;;4977437;28;20407;-70
2021/01/21 09:59:35;;;;;;;0.83;0.70;;;7.30;96.20;;;;;;4977433;28;20173;-71
2021/01/21 10:02:01;;;;;;;0.60;0.60;;;7.20;96.40;;;;;;4977314;28;20217;-70
2021/01/21 10:04:27;;;;;;;0.50;0.50;;;7.20;96.70;;;;;;4977581;28;20188;-70
2021/01/21 10:06:52;;;;;;;0.50;0.50;;;7.10;96.70;;;;;;4977099;28;20205;-70
2021/01/21 10:09:18;;;;;;;0.83;0.70;;;7.10;96.90;;;;;;4977353;28;20173;-70
2021/01/21 10:11:44;;;;;;;0.50;0.50;;;6.90;97.50;;;;;;4977180;28;20228;-70
2021/01/21 10:14:10;;;;;;;0.90;0.60;;;6.80;97.70;;;;;;4977346;28;20643;-69
2021/01/21 10:16:36;;;;;;;0.50;0.50;;;6.90;98.20;;;;;;4976957;28;20567;-69
2021/01/21 10:19:02;;;;;;;0.73;0.73;;;7.00;97.80;;;;;;4976928;28;20442;-71
2021/01/21 10:21:28;;;;;;;0.60;0.50;;;7.00;97.50;;;;;;4977098;28;20541;-69
2021/01/21 10:23:54;;;;;;;0.40;0.40;;;7.10;97.20;;;;;;4976978;28;20174;-70
2021/01/21 10:26:20;;;;;;;1.10;1.00;;;7.00;97.10;;;;;;4976809;28;20201;-70
2021/01/21 10:28:46;;;;;;;1.10;0.85;;;7.00;97.50;;;;;;4977087;28;20173;-70
2021/01/21 10:31:12;;;;;;;1.75;0.73;;;7.10;97.50;;;;;;4976738;28;20193;-70
2021/01/21 10:33:38;;;;;;;0.70;0.70;;;7.10;97.20;;;;;;4977025;28;20180;-69
2021/01/21 10:36:07;;;;;;;0.87;0.53;;;7.30;97.50;;;;;;4976606;28;20227;-69
2021/01/21 10:38:33;;;;;;;0.98;0.60;;;7.40;97.30;;;;;;4976893;28;20400;-70
2021/01/21 10:40:59;;;;;;;0.70;0.70;;;7.50;96.60;;;;;;4976757;28;20173;-70
2021/01/21 10:43:25;;;;;;;2.15;0.73;;;7.60;96.20;;;;;;4976509;28;20228;-70
2021/01/21 10:45:51;;;;;;;0.60;0.60;;;7.40;96.60;;;;;;4976417;28;20598;-70
2021/01/21 10:48:16;;;;;;;1.37;0.70;;;7.40;96.70;;;;;;4976603;28;20192;-69
2021/01/21 10:50:42;;;;;;;1.70;1.60;;;7.30;97.00;;;;;;4976539;28;20632;-70
2021/01/21 10:53:09;;;;;;;1.17;1.00;;;7.40;97.10;;;;;;4976563;28;20681;-68
2021/01/21 10:55:35;;;;;;;1.00;1.00;;;7.50;96.70;;;;;;4976232;28;20408;-68
2021/01/21 10:58:00;;;;;;;2.75;1.38;;;7.50;96.80;;;;;;4976528;28;20651;-71
2021/01/21 11:00:26;;;;;;;0.60;0.60;;;7.40;97.10;;;;;;4976540;28;20179;-70
2021/01/21 11:02:52;;;;;;;0.83;0.83;;;7.60;97.50;;;;;;4976230;28;20684;-70
2021/01/21 11:05:18;;;;;;;1.50;0.60;;;7.90;97.10;;;;;;4976157;28;20181;-70
2021/01/21 11:07:43;;;;;;;1.13;1.03;;;7.90;96.30;;;;;;4976211;28;20198;-71
2021/01/21 11:10:10;;;;;;;1.57;1.43;;;7.90;96.60;;;;;;4976057;28;20463;-70
2021/01/21 11:12:35;;;;;;;1.13;0.80;;;8.10;96.50;;;;;;4976048;28;20215;-70
2021/01/21 11:15:03;;;;;;;1.33;0.93;;;8.30;96.10;;;;;;4975959;28;20254;-71
2021/01/21 11:17:29;;;;;;;1.70;0.82;;;8.20;95.60;;;;;;4975967;28;20191;-69
2021/01/21 11:19:56;;;;;;;1.50;0.87;;;8.20;95.70;;;;;;4975769;28;20186;-70
2021/01/21 11:22:25;;;;;;;1.02;0.70;;;8.20;95.90;;;;;;4974583;28;20199;-69
2021/01/21 11:24:51;;;;;;;2.50;1.15;;;8.10;96.30;;;;;;4975776;28;20177;-70
2021/01/21 11:27:17;;;;;;;2.75;1.33;;;8.10;96.30;;;;;;4975742;28;20197;-69
2021/01/21 11:29:43;;;;;;;0.88;0.88;;;7.90;96.40;;;;;;4975875;28;20176;-71
2021/01/21 11:32:09;;;;;;;1.45;1.00;;;7.70;96.70;;;;;;4975159;28;20252;-70
2021/01/21 11:34:35;;;;;;;0.70;0.70;;;7.60;97.40;;;;;;4975663;28;20280;-70
2021/01/21 11:37:01;;;;;;;1.40;1.13;;;7.70;97.10;;;;;;4975576;28;20405;-71
2021/01/21 11:39:26;;;;;;;0.60;0.60;;;7.70;96.80;;;;;;4975778;28;20180;-69
2021/01/21 11:41:53;;;;;;;0.80;0.80;;;7.70;96.90;;;;;;4975523;28;20198;-68
2021/01/21 11:44:18;;;;;;;0.75;0.70;;;7.80;96.90;;;;;;4975527;28;20409;-67
2021/01/21 11:46:44;;;;;;;0.53;0.53;;;7.70;96.70;;;;;;4975290;28;20212;-67
2021/01/21 11:49:10;;;;;;;1.17;1.07;;;7.70;96.90;;;;;;4975522;28;20169;-67
2021/01/21 11:51:35;;;;;;;1.33;0.83;;;7.70;97.00;;;;;;4975324;28;20247;-67
2021/01/21 11:54:01;;;;;;;0.90;0.90;;;7.70;96.90;;;;;;4975436;28;20208;-67
2021/01/21 11:56:27;;;;;;;2.43;0.90;;;7.80;96.90;;;;;;4975120;28;20324;-68
2021/01/21 11:58:52;;;;;;;0.97;0.50;;;7.70;96.80;;;;;;4975257;28;20177;-67
2021/01/21 12:01:18;;;;;;;1.63;0.60;;;7.50;97.10;;;;;;4975407;28;20679;-67
2021/01/21 12:03:43;;;;;;;0.80;0.80;;;7.60;97.30;;;;;;4975171;28;20178;-67
2021/01/21 12:06:09;;;;;;;0.60;0.60;;;7.80;97.00;;;;;;4975030;28;20201;-67
2021/01/21 12:08:35;;;;;;;0.50;0.50;;;8.00;97.10;;;;;;4975098;28;20201;-67
2021/01/21 12:11:00;;;;;;;1.33;1.23;;;7.80;97.10;;;;;;4974922;28;20249;-67
2021/01/21 12:13:26;;;;;;;0.97;0.67;;;7.80;96.90;;;;;;4975030;28;20250;-67
2021/01/21 12:15:52;;;;;;;0.60;0.60;;;7.90;96.70;;;;;;4974919;28;20201;-67
2021/01/21 12:18:17;;;;;;;1.23;0.80;;;7.90;97.10;;;;;;4974974;28;20183;-67
2021/01/21 12:20:43;;;;;;;0.80;0.80;;;8.00;96.90;;;;;;4974965;28;20179;-67
2021/01/21 12:23:09;;;;;;;2.60;0.90;;;7.90;97.10;;;;;;4974921;28;20219;-67
2021/01/21 12:25:35;;;;;;;0.60;0.60;;;8.00;96.90;;;;;;4974693;28;20182;-67
2021/01/21 12:28:00;;;;;;;1.03;1.03;;;7.90;96.70;;;;;;4974740;28;20501;-67
2021/01/21 12:30:26;;;;;;;0.80;0.80;;;7.70;96.60;;;;;;4974792;28;20398;-67
2021/01/21 12:32:52;;;;;;;0.53;0.53;;;7.60;97.00;;;;;;4974661;28;20193;-67
2021/01/21 12:35:17;;;;;;;0.97;0.80;;;7.70;97.00;;;;;;4974794;28;20652;-67
2021/01/21 12:37:45;;;;;;;1.60;1.10;;;7.60;97.10;;;;;;4974661;28;20200;-67
2021/01/21 12:40:11;;;;;;;2.70;1.52;;;7.50;97.80;;;;;;4974652;28;20450;-67
2021/01/21 12:42:37;;;;;;;1.95;1.70;;;7.50;97.90;;;;;;4973911;28;20307;-67
2021/01/21 12:45:05;;;;;;;1.53;0.97;;;7.60;97.90;;;;;;4974386;28;20169;-68
2021/01/21 12:47:31;;;;;;;2.78;0.82;;;7.80;97.80;;;;;;4974122;28;20214;-67
2021/01/21 12:49:56;;;;;;;0.60;0.60;;;7.80;97.80;;;;;;4973319;28;20186;-67
2021/01/21 12:52:22;;;;;;;3.00;1.07;;;7.90;97.30;;;;;;4974620;28;20189;-67
2021/01/21 12:54:48;;;;;;;1.23;1.05;;;7.90;97.30;;;;;;4974448;28;20181;-67
2021/01/21 12:57:17;;;;;;;0.93;0.93;;;8.00;97.20;;;;;;4974483;28;20181;-67
2021/01/21 12:59:49;;;;;;;0.85;0.60;;;7.80;97.70;;;;;;4974389;28;20176;-67
2021/01/21 13:02:15;;;;;;;3.33;0.80;;;7.80;97.40;;;;;;4974531;28;20194;-67
2021/01/21 13:04:41;;;;;;;3.73;1.10;;;7.70;97.60;;;;;;4974455;28;20181;-67
2021/01/21 13:07:07;;;;;;;1.65;1.10;;;7.60;97.70;;;;;;4974493;28;20453;-67
2021/01/21 13:09:33;;;;;;;0.70;0.70;;;7.30;97.70;;;;;;4974230;28;20239;-67
2021/01/21 13:11:59;;;;;;;0.85;0.85;;;7.30;98.20;;;;;;4974378;28;20336;-67
2021/01/21 13:14:25;;;;;;;0.87;0.80;;;7.40;98.70;;;;;;4974375;28;20267;-67
2021/01/21 13:16:50;;;;;;;1.10;0.80;;;7.40;99.30;;;;;;4974326;28;20222;-67